sensor_id;sensor_type;location;lat;lon;timestamp;temperature;humidity
20483;DHT22;10400;53.198;6.592;2023-04-15T00:00:41;7.60;18.00
20483;DHT22;10400;53.198;6.592;2023-04-15T00:03:06;7.60;24.50
20483;DHT22;10400;53.198;6.592;2023-04-15T00:05:33;7.60;22.20
20483;DHT22;10400;53.198;6.592;2023-04-15T00:07:59;7.60;27.20
20483;DHT22;10400;53.198;6.592;2023-04-15T00:10:26;7.50;30.80
20483;DHT22;10400;53.198;6.592;2023-04-15T00:12:52;7.50;37.10
20483;DHT22;10400;53.198;6.592;2023-04-15T00:15:18;7.40;39.30
20483;DHT22;10400;53.198;6.592;2023-04-15T00:17:44;7.40;54.20
20483;DHT22;10400;53.198;6.592;2023-04-15T00:20:10;7.50;68.30
20483;DHT22;10400;53.198;6.592;2023-04-15T00:22:36;7.50;67.60
20483;DHT22;10400;53.198;6.592;2023-04-15T00:25:02;7.50;63.10
20483;DHT22;10400;53.198;6.592;2023-04-15T00:27:27;7.50;59.10
20483;DHT22;10400;53.198;6.592;2023-04-15T00:29:54;7.50;68.40
20483;DHT22;10400;53.198;6.592;2023-04-15T00:32:19;7.40;70.40
20483;DHT22;10400;53.198;6.592;2023-04-15T00:34:45;7.40;83.30
20483;DHT22;10400;53.198;6.592;2023-04-15T00:37:11;7.40;84.80
20483;DHT22;10400;53.198;6.592;2023-04-15T00:39:37;7.40;86.00
20483;DHT22;10400;53.198;6.592;2023-04-15T00:42:04;7.40;92.70
20483;DHT22;10400;53.198;6.592;2023-04-15T00:44:30;7.40;92.60
20483;DHT22;10400;53.198;6.592;2023-04-15T00:46:56;7.50;91.00
20483;DHT22;10400;53.198;6.592;2023-04-15T00:49:22;7.50;92.10
20483;DHT22;10400;53.198;6.592;2023-04-15T00:51:48;7.50;94.60
20483;DHT22;10400;53.198;6.592;2023-04-15T00:54:14;7.50;94.10
20483;DHT22;10400;53.198;6.592;2023-04-15T00:56:41;7.50;95.70
20483;DHT22;10400;53.198;6.592;2023-04-15T00:59:07;7.40;97.00
20483;DHT22;10400;53.198;6.592;2023-04-15T01:01:34;7.40;97.70
20483;DHT22;10400;53.198;6.592;2023-04-15T01:04:00;7.40;99.90
20483;DHT22;10400;53.198;6.592;2023-04-15T01:06:26;7.40;99.90
20483;DHT22;10400;53.198;6.592;2023-04-15T01:08:53;7.40;99.90
20483;DHT22;10400;53.198;6.592;2023-04-15T01:11:19;7.30;99.90
20483;DHT22;10400;53.198;6.592;2023-04-15T01:13:46;7.30;99.90
20483;DHT22;10400;53.198;6.592;2023-04-15T01:16:13;7.30;99.90
20483;DHT22;10400;53.198;6.592;2023-04-15T01:18:39;7.30;99.90
20483;DHT22;10400;53.198;6.592;2023-04-15T01:21:05;7.30;99.90
20483;DHT22;10400;53.198;6.592;2023-04-15T01:23:34;7.30;99.90
20483;DHT22;10400;53.198;6.592;2023-04-15T01:26:01;7.30;99.90
20483;DHT22;10400;53.198;6.592;2023-04-15T01:28:28;7.30;99.90
20483;DHT22;10400;53.198;6.592;2023-04-15T01:31:11;7.20;99.90
20483;DHT22;10400;53.198;6.592;2023-04-15T01:33:38;7.20;99.90
20483;DHT22;10400;53.198;6.592;2023-04-15T01:36:05;7.20;99.90
20483;DHT22;10400;53.198;6.592;2023-04-15T01:38:33;7.20;99.90
20483;DHT22;10400;53.198;6.592;2023-04-15T01:40:59;7.10;99.90
20483;DHT22;10400;53.198;6.592;2023-04-15T01:43:25;7.10;99.90
20483;DHT22;10400;53.198;6.592;2023-04-15T01:45:51;7.10;99.90
20483;DHT22;10400;53.198;6.592;2023-04-15T01:48:16;7.10;99.90
20483;DHT22;10400;53.198;6.592;2023-04-15T01:50:44;7.00;99.90
20483;DHT22;10400;53.198;6.592;2023-04-15T01:53:10;7.00;99.90
20483;DHT22;10400;53.198;6.592;2023-04-15T01:55:36;7.00;99.90
20483;DHT22;10400;53.198;6.592;2023-04-15T01:58:02;7.00;99.90
20483;DHT22;10400;53.198;6.592;2023-04-15T02:00:27;6.90;99.90
20483;DHT22;10400;53.198;6.592;2023-04-15T02:02:54;6.90;99.90
20483;DHT22;10400;53.198;6.592;2023-04-15T02:05:19;6.90;99.90
20483;DHT22;10400;53.198;6.592;2023-04-15T02:07:45;6.90;99.90
20483;DHT22;10400;53.198;6.592;2023-04-15T02:10:11;6.80;99.90
20483;DHT22;10400;53.198;6.592;2023-04-15T02:12:41;6.80;99.90
20483;DHT22;10400;53.198;6.592;2023-04-15T02:15:07;6.80;99.90
20483;DHT22;10400;53.198;6.592;2023-04-15T02:17:34;6.80;99.90
20483;DHT22;10400;53.198;6.592;2023-04-15T02:20:00;6.70;99.90
20483;DHT22;10400;53.198;6.592;2023-04-15T02:22:26;6.80;99.90
20483;DHT22;10400;53.198;6.592;2023-04-15T02:24:52;6.80;99.90
20483;DHT22;10400;53.198;6.592;2023-04-15T02:27:18;6.80;99.90
20483;DHT22;10400;53.198;6.592;2023-04-15T02:29:44;6.70;99.90
20483;DHT22;10400;53.198;6.592;2023-04-15T02:32:10;6.70;99.90
20483;DHT22;10400;53.198;6.592;2023-04-15T02:34:37;6.70;99.90
20483;DHT22;10400;53.198;6.592;2023-04-15T02:37:06;6.60;99.90
20483;DHT22;10400;53.198;6.592;2023-04-15T02:39:32;6.60;99.90
20483;DHT22;10400;53.198;6.592;2023-04-15T02:41:58;6.50;99.90
20483;DHT22;10400;53.198;6.592;2023-04-15T02:44:25;6.60;99.90
20483;DHT22;10400;53.198;6.592;2023-04-15T02:46:52;6.50;99.90
20483;DHT22;10400;53.198;6.592;2023-04-15T02:49:19;6.40;99.90
20483;DHT22;10400;53.198;6.592;2023-04-15T02:51:45;6.40;99.90
20483;DHT22;10400;53.198;6.592;2023-04-15T02:54:21;6.40;99.90
20483;DHT22;10400;53.198;6.592;2023-04-15T02:56:50;6.30;99.90
20483;DHT22;10400;53.198;6.592;2023-04-15T02:59:19;6.30;99.90
20483;DHT22;10400;53.198;6.592;2023-04-15T03:01:45;6.30;99.90
20483;DHT22;10400;53.198;6.592;2023-04-15T03:04:10;6.30;99.90
20483;DHT22;10400;53.198;6.592;2023-04-15T03:06:36;6.20;99.90
20483;DHT22;10400;53.198;6.592;2023-04-15T03:09:02;6.20;99.90
20483;DHT22;10400;53.198;6.592;2023-04-15T03:11:31;6.20;99.90
20483;DHT22;10400;53.198;6.592;2023-04-15T03:13:57;6.10;99.90
20483;DHT22;10400;53.198;6.592;2023-04-15T03:16:23;6.10;99.90
20483;DHT22;10400;53.198;6.592;2023-04-15T03:18:49;6.10;99.90
20483;DHT22;10400;53.198;6.592;2023-04-15T03:21:15;6.10;99.90
20483;DHT22;10400;53.198;6.592;2023-04-15T03:23:40;6.00;99.90
20483;DHT22;10400;53.198;6.592;2023-04-15T03:26:06;6.00;99.90
20483;DHT22;10400;53.198;6.592;2023-04-15T03:28:31;6.00;99.90
20483;DHT22;10400;53.198;6.592;2023-04-15T03:30:58;6.00;99.90
20483;DHT22;10400;53.198;6.592;2023-04-15T03:33:23;6.10;99.90
20483;DHT22;10400;53.198;6.592;2023-04-15T03:35:50;6.00;99.90
20483;DHT22;10400;53.198;6.592;2023-04-15T03:38:16;6.00;99.90
20483;DHT22;10400;53.198;6.592;2023-04-15T03:40:42;5.90;99.90
20483;DHT22;10400;53.198;6.592;2023-04-15T03:43:08;5.90;99.90
20483;DHT22;10400;53.198;6.592;2023-04-15T03:45:34;5.90;99.90
20483;DHT22;10400;53.198;6.592;2023-04-15T03:48:00;5.90;99.90
20483;DHT22;10400;53.198;6.592;2023-04-15T03:50:26;5.90;99.90
20483;DHT22;10400;53.198;6.592;2023-04-15T03:52:52;5.90;99.90
20483;DHT22;10400;53.198;6.592;2023-04-15T03:55:18;5.90;99.90
20483;DHT22;10400;53.198;6.592;2023-04-15T03:57:44;5.90;99.90
20483;DHT22;10400;53.198;6.592;2023-04-15T04:00:10;5.90;99.90
20483;DHT22;10400;53.198;6.592;2023-04-15T04:02:36;5.90;99.90
20483;DHT22;10400;53.198;6.592;2023-04-15T04:05:01;5.90;99.90
20483;DHT22;10400;53.198;6.592;2023-04-15T04:07:27;5.90;99.90
20483;DHT22;10400;53.198;6.592;2023-04-15T04:09:53;5.90;99.90
20483;DHT22;10400;53.198;6.592;2023-04-15T04:12:18;5.90;99.90
20483;DHT22;10400;53.198;6.592;2023-04-15T04:14:44;5.90;99.90
20483;DHT22;10400;53.198;6.592;2023-04-15T04:17:10;5.80;99.90
20483;DHT22;10400;53.198;6.592;2023-04-15T04:19:36;5.70;99.90
20483;DHT22;10400;53.198;6.592;2023-04-15T04:22:01;5.70;99.90
20483;DHT22;10400;53.198;6.592;2023-04-15T04:24:27;5.70;99.90
20483;DHT22;10400;53.198;6.592;2023-04-15T04:26:52;5.70;99.90
20483;DHT22;10400;53.198;6.592;2023-04-15T04:29:18;5.70;99.90
20483;DHT22;10400;53.198;6.592;2023-04-15T04:31:44;5.80;99.90
20483;DHT22;10400;53.198;6.592;2023-04-15T04:34:10;5.80;99.90
20483;DHT22;10400;53.198;6.592;2023-04-15T04:36:35;5.80;99.90
20483;DHT22;10400;53.198;6.592;2023-04-15T04:39:01;5.80;99.90
20483;DHT22;10400;53.198;6.592;2023-04-15T04:41:27;5.80;99.90
20483;DHT22;10400;53.198;6.592;2023-04-15T04:43:52;5.80;99.90
20483;DHT22;10400;53.198;6.592;2023-04-15T04:46:18;5.90;99.90
20483;DHT22;10400;53.198;6.592;2023-04-15T04:48:44;5.80;99.90
20483;DHT22;10400;53.198;6.592;2023-04-15T04:51:10;5.80;99.90
20483;DHT22;10400;53.198;6.592;2023-04-15T04:53:35;5.80;99.90
20483;DHT22;10400;53.198;6.592;2023-04-15T04:56:02;5.90;99.90
20483;DHT22;10400;53.198;6.592;2023-04-15T04:58:28;5.90;99.90
20483;DHT22;10400;53.198;6.592;2023-04-15T05:00:53;5.90;99.90
20483;DHT22;10400;53.198;6.592;2023-04-15T05:03:20;6.00;99.90
20483;DHT22;10400;53.198;6.592;2023-04-15T05:05:46;6.00;99.90
20483;DHT22;10400;53.198;6.592;2023-04-15T05:08:14;6.20;99.90
20483;DHT22;10400;53.198;6.592;2023-04-15T05:10:39;6.20;99.90
20483;DHT22;10400;53.198;6.592;2023-04-15T05:13:05;6.40;99.90
20483;DHT22;10400;53.198;6.592;2023-04-15T05:15:31;6.40;99.90
20483;DHT22;10400;53.198;6.592;2023-04-15T05:17:57;6.40;99.90
20483;DHT22;10400;53.198;6.592;2023-04-15T05:20:23;6.40;99.90
20483;DHT22;10400;53.198;6.592;2023-04-15T05:22:48;6.50;99.90
20483;DHT22;10400;53.198;6.592;2023-04-15T05:25:14;6.50;99.90
20483;DHT22;10400;53.198;6.592;2023-04-15T05:27:40;6.50;99.90
20483;DHT22;10400;53.198;6.592;2023-04-15T05:30:06;6.60;99.90
20483;DHT22;10400;53.198;6.592;2023-04-15T05:32:33;6.60;99.90
20483;DHT22;10400;53.198;6.592;2023-04-15T05:34:59;6.80;99.90
20483;DHT22;10400;53.198;6.592;2023-04-15T05:37:24;6.90;99.90
20483;DHT22;10400;53.198;6.592;2023-04-15T05:39:50;7.00;99.90
20483;DHT22;10400;53.198;6.592;2023-04-15T05:42:16;7.00;99.90
20483;DHT22;10400;53.198;6.592;2023-04-15T05:44:42;7.20;99.90
20483;DHT22;10400;53.198;6.592;2023-04-15T05:47:07;7.10;99.90
20483;DHT22;10400;53.198;6.592;2023-04-15T05:49:34;7.20;99.90
20483;DHT22;10400;53.198;6.592;2023-04-15T05:52:00;7.20;99.90
20483;DHT22;10400;53.198;6.592;2023-04-15T05:54:26;7.40;99.90
20483;DHT22;10400;53.198;6.592;2023-04-15T05:56:52;7.50;99.90
20483;DHT22;10400;53.198;6.592;2023-04-15T05:59:18;7.60;99.90
20483;DHT22;10400;53.198;6.592;2023-04-15T06:01:43;7.70;99.90
20483;DHT22;10400;53.198;6.592;2023-04-15T06:04:09;7.70;99.90
20483;DHT22;10400;53.198;6.592;2023-04-15T06:06:36;7.80;99.90
20483;DHT22;10400;53.198;6.592;2023-04-15T06:09:03;7.90;99.90
20483;DHT22;10400;53.198;6.592;2023-04-15T06:11:28;7.90;99.90
20483;DHT22;10400;53.198;6.592;2023-04-15T06:13:54;7.90;99.90
20483;DHT22;10400;53.198;6.592;2023-04-15T06:16:21;7.90;99.90
20483;DHT22;10400;53.198;6.592;2023-04-15T06:18:47;7.80;99.90
20483;DHT22;10400;53.198;6.592;2023-04-15T06:21:13;7.80;99.90
20483;DHT22;10400;53.198;6.592;2023-04-15T06:23:39;7.90;99.90
20483;DHT22;10400;53.198;6.592;2023-04-15T06:26:06;8.00;99.90
20483;DHT22;10400;53.198;6.592;2023-04-15T06:28:31;8.00;99.90
20483;DHT22;10400;53.198;6.592;2023-04-15T06:30:57;8.10;99.90
20483;DHT22;10400;53.198;6.592;2023-04-15T06:33:22;8.20;99.90
20483;DHT22;10400;53.198;6.592;2023-04-15T06:35:49;8.30;99.90
20483;DHT22;10400;53.198;6.592;2023-04-15T06:38:14;8.30;99.90
20483;DHT22;10400;53.198;6.592;2023-04-15T06:40:40;8.40;99.90
20483;DHT22;10400;53.198;6.592;2023-04-15T06:43:06;8.50;99.90
20483;DHT22;10400;53.198;6.592;2023-04-15T06:45:32;8.60;99.90
20483;DHT22;10400;53.198;6.592;2023-04-15T06:47:57;8.70;99.90
20483;DHT22;10400;53.198;6.592;2023-04-15T06:50:23;8.80;99.90
20483;DHT22;10400;53.198;6.592;2023-04-15T06:52:49;8.80;99.90
20483;DHT22;10400;53.198;6.592;2023-04-15T06:55:15;8.90;99.90
20483;DHT22;10400;53.198;6.592;2023-04-15T06:57:40;8.90;99.90
20483;DHT22;10400;53.198;6.592;2023-04-15T07:00:06;8.90;99.90
20483;DHT22;10400;53.198;6.592;2023-04-15T07:02:33;9.00;99.90
20483;DHT22;10400;53.198;6.592;2023-04-15T07:04:58;9.00;99.90
20483;DHT22;10400;53.198;6.592;2023-04-15T07:07:24;9.00;99.90
20483;DHT22;10400;53.198;6.592;2023-04-15T07:09:50;9.10;99.90
20483;DHT22;10400;53.198;6.592;2023-04-15T07:12:18;9.00;99.90
20483;DHT22;10400;53.198;6.592;2023-04-15T07:14:43;9.10;99.90
20483;DHT22;10400;53.198;6.592;2023-04-15T07:17:09;9.20;99.90
20483;DHT22;10400;53.198;6.592;2023-04-15T07:19:36;9.30;99.90
20483;DHT22;10400;53.198;6.592;2023-04-15T07:22:01;9.40;99.90
20483;DHT22;10400;53.198;6.592;2023-04-15T07:24:28;9.30;99.90
20483;DHT22;10400;53.198;6.592;2023-04-15T07:26:53;9.40;99.90
20483;DHT22;10400;53.198;6.592;2023-04-15T07:29:22;9.40;99.90
20483;DHT22;10400;53.198;6.592;2023-04-15T07:31:47;9.40;99.90
20483;DHT22;10400;53.198;6.592;2023-04-15T07:34:13;9.30;99.90
20483;DHT22;10400;53.198;6.592;2023-04-15T07:36:39;9.40;99.90
20483;DHT22;10400;53.198;6.592;2023-04-15T07:39:05;9.40;99.90
20483;DHT22;10400;53.198;6.592;2023-04-15T07:41:30;9.40;99.90
20483;DHT22;10400;53.198;6.592;2023-04-15T07:43:56;9.40;99.90
20483;DHT22;10400;53.198;6.592;2023-04-15T07:46:22;9.30;99.90
20483;DHT22;10400;53.198;6.592;2023-04-15T07:48:49;9.30;99.90
20483;DHT22;10400;53.198;6.592;2023-04-15T07:51:15;9.20;99.90
20483;DHT22;10400;53.198;6.592;2023-04-15T07:53:42;9.20;99.90
20483;DHT22;10400;53.198;6.592;2023-04-15T07:56:08;9.20;99.90
20483;DHT22;10400;53.198;6.592;2023-04-15T07:58:34;9.20;99.90
20483;DHT22;10400;53.198;6.592;2023-04-15T08:01:00;9.30;99.90
20483;DHT22;10400;53.198;6.592;2023-04-15T08:03:26;9.40;99.90
20483;DHT22;10400;53.198;6.592;2023-04-15T08:05:52;9.40;99.90
20483;DHT22;10400;53.198;6.592;2023-04-15T08:08:18;9.50;99.90
20483;DHT22;10400;53.198;6.592;2023-04-15T08:10:44;9.50;99.90
20483;DHT22;10400;53.198;6.592;2023-04-15T08:13:10;9.50;99.90
20483;DHT22;10400;53.198;6.592;2023-04-15T08:15:36;9.50;99.90
20483;DHT22;10400;53.198;6.592;2023-04-15T08:18:02;9.40;99.90
20483;DHT22;10400;53.198;6.592;2023-04-15T08:20:28;9.40;99.90
20483;DHT22;10400;53.198;6.592;2023-04-15T08:22:54;9.40;99.90
20483;DHT22;10400;53.198;6.592;2023-04-15T08:25:20;9.40;99.90
20483;DHT22;10400;53.198;6.592;2023-04-15T08:27:46;9.40;99.90
20483;DHT22;10400;53.198;6.592;2023-04-15T08:30:11;9.20;99.90
20483;DHT22;10400;53.198;6.592;2023-04-15T08:32:37;9.20;99.90
20483;DHT22;10400;53.198;6.592;2023-04-15T08:35:03;9.20;99.90
20483;DHT22;10400;53.198;6.592;2023-04-15T08:37:29;9.20;99.90
20483;DHT22;10400;53.198;6.592;2023-04-15T08:39:54;9.30;99.90
20483;DHT22;10400;53.198;6.592;2023-04-15T08:42:35;9.30;99.90
20483;DHT22;10400;53.198;6.592;2023-04-15T08:45:03;9.20;99.90
20483;DHT22;10400;53.198;6.592;2023-04-15T08:47:30;9.20;99.90
20483;DHT22;10400;53.198;6.592;2023-04-15T08:49:57;9.10;99.90
20483;DHT22;10400;53.198;6.592;2023-04-15T08:52:25;9.10;99.90
20483;DHT22;10400;53.198;6.592;2023-04-15T08:54:54;9.20;99.90
20483;DHT22;10400;53.198;6.592;2023-04-15T08:57:25;9.20;99.90
20483;DHT22;10400;53.198;6.592;2023-04-15T08:59:52;9.20;99.90
20483;DHT22;10400;53.198;6.592;2023-04-15T09:02:18;9.30;99.90
20483;DHT22;10400;53.198;6.592;2023-04-15T09:04:44;9.30;99.90
20483;DHT22;10400;53.198;6.592;2023-04-15T09:07:09;9.30;99.90
20483;DHT22;10400;53.198;6.592;2023-04-15T09:09:35;9.30;99.90
20483;DHT22;10400;53.198;6.592;2023-04-15T09:12:04;9.40;99.90
20483;DHT22;10400;53.198;6.592;2023-04-15T09:14:30;9.40;99.90
20483;DHT22;10400;53.198;6.592;2023-04-15T09:17:03;9.30;98.90
20483;DHT22;10400;53.198;6.592;2023-04-15T09:19:30;9.50;98.70
20483;DHT22;10400;53.198;6.592;2023-04-15T09:21:58;9.60;95.90
20483;DHT22;10400;53.198;6.592;2023-04-15T09:24:24;9.60;91.30
20483;DHT22;10400;53.198;6.592;2023-04-15T09:26:52;9.60;89.40
20483;DHT22;10400;53.198;6.592;2023-04-15T09:29:23;9.60;48.60
20483;DHT22;10400;53.198;6.592;2023-04-15T09:31:50;9.60;38.60
20483;DHT22;10400;53.198;6.592;2023-04-15T09:34:16;9.80;23.30
20483;DHT22;10400;53.198;6.592;2023-04-15T09:39:10;10.00;1.00
20483;DHT22;10400;53.198;6.592;2023-04-15T09:41:36;10.10;1.00
20483;DHT22;10400;53.198;6.592;2023-04-15T09:44:03;10.10;1.00
20483;DHT22;10400;53.198;6.592;2023-04-15T09:46:41;9.90;1.00
20483;DHT22;10400;53.198;6.592;2023-04-15T09:49:09;10.00;1.00
20483;DHT22;10400;53.198;6.592;2023-04-15T09:51:35;9.90;1.00
20483;DHT22;10400;53.198;6.592;2023-04-15T09:54:01;10.10;1.00
20483;DHT22;10400;53.198;6.592;2023-04-15T09:56:34;10.10;1.00
20483;DHT22;10400;53.198;6.592;2023-04-15T09:59:01;10.10;1.00
20483;DHT22;10400;53.198;6.592;2023-04-15T10:01:27;10.10;1.00
20483;DHT22;10400;53.198;6.592;2023-04-15T10:03:55;10.10;1.00
20483;DHT22;10400;53.198;6.592;2023-04-15T10:06:23;10.20;1.00
20483;DHT22;10400;53.198;6.592;2023-04-15T10:08:50;10.30;1.00
20483;DHT22;10400;53.198;6.592;2023-04-15T10:11:17;10.50;1.00
20483;DHT22;10400;53.198;6.592;2023-04-15T10:13:44;10.50;1.00
20483;DHT22;10400;53.198;6.592;2023-04-15T10:16:13;10.30;1.00
20483;DHT22;10400;53.198;6.592;2023-04-15T10:18:54;10.20;1.00
20483;DHT22;10400;53.198;6.592;2023-04-15T10:21:20;10.20;1.00
20483;DHT22;10400;53.198;6.592;2023-04-15T10:23:47;10.20;1.00
20483;DHT22;10400;53.198;6.592;2023-04-15T10:26:13;10.30;1.00
20483;DHT22;10400;53.198;6.592;2023-04-15T10:28:40;10.20;1.00
20483;DHT22;10400;53.198;6.592;2023-04-15T10:31:06;10.10;1.00
20483;DHT22;10400;53.198;6.592;2023-04-15T10:33:33;10.10;7.20
20483;DHT22;10400;53.198;6.592;2023-04-15T10:36:00;10.10;12.90
20483;DHT22;10400;53.198;6.592;2023-04-15T10:38:42;10.00;12.30
20483;DHT22;10400;53.198;6.592;2023-04-15T10:41:15;10.00;11.20
20483;DHT22;10400;53.198;6.592;2023-04-15T10:44:01;10.00;11.90
20483;DHT22;10400;53.198;6.592;2023-04-15T10:46:43;10.00;18.80
20483;DHT22;10400;53.198;6.592;2023-04-15T10:49:10;9.90;16.20
20483;DHT22;10400;53.198;6.592;2023-04-15T10:51:38;10.00;14.20
20483;DHT22;10400;53.198;6.592;2023-04-15T10:54:32;9.90;8.00
20483;DHT22;10400;53.198;6.592;2023-04-15T10:59:38;9.90;1.00
20483;DHT22;10400;53.198;6.592;2023-04-15T11:05:19;9.90;1.00
20483;DHT22;10400;53.198;6.592;2023-04-15T11:07:49;9.90;2.30
20483;DHT22;10400;53.198;6.592;2023-04-15T11:18:12;10.10;1.00
20483;DHT22;10400;53.198;6.592;2023-04-15T11:20:40;10.10;1.00
20483;DHT22;10400;53.198;6.592;2023-04-15T11:23:07;10.00;1.00
20483;DHT22;10400;53.198;6.592;2023-04-15T11:25:34;10.10;1.00
20483;DHT22;10400;53.198;6.592;2023-04-15T11:28:01;10.20;1.00
20483;DHT22;10400;53.198;6.592;2023-04-15T11:30:30;10.20;1.00
20483;DHT22;10400;53.198;6.592;2023-04-15T11:33:04;10.20;1.00
20483;DHT22;10400;53.198;6.592;2023-04-15T11:35:31;10.10;1.00
20483;DHT22;10400;53.198;6.592;2023-04-15T11:37:57;10.20;1.00
20483;DHT22;10400;53.198;6.592;2023-04-15T11:40:28;10.30;1.00
20483;DHT22;10400;53.198;6.592;2023-04-15T11:43:17;10.20;1.00
20483;DHT22;10400;53.198;6.592;2023-04-15T11:45:56;10.10;1.00
20483;DHT22;10400;53.198;6.592;2023-04-15T11:48:33;10.10;1.00
20483;DHT22;10400;53.198;6.592;2023-04-15T11:51:06;10.10;1.00
20483;DHT22;10400;53.198;6.592;2023-04-15T11:53:46;10.20;1.00
20483;DHT22;10400;53.198;6.592;2023-04-15T11:56:25;10.20;1.00
20483;DHT22;10400;53.198;6.592;2023-04-15T11:58:52;10.20;1.00
20483;DHT22;10400;53.198;6.592;2023-04-15T12:01:18;10.10;1.00
20483;DHT22;10400;53.198;6.592;2023-04-15T12:03:47;10.00;8.10
20483;DHT22;10400;53.198;6.592;2023-04-15T12:13:58;10.00;9.90
20483;DHT22;10400;53.198;6.592;2023-04-15T12:16:27;10.00;10.60
20483;DHT22;10400;53.198;6.592;2023-04-15T12:18:55;10.00;26.30
20483;DHT22;10400;53.198;6.592;2023-04-15T12:21:22;10.00;26.50
20483;DHT22;10400;53.198;6.592;2023-04-15T12:23:52;10.10;37.50
20483;DHT22;10400;53.198;6.592;2023-04-15T12:26:25;10.20;27.00
20483;DHT22;10400;53.198;6.592;2023-04-15T12:28:55;10.10;35.00
20483;DHT22;10400;53.198;6.592;2023-04-15T12:31:24;10.10;52.10
20483;DHT22;10400;53.198;6.592;2023-04-15T12:33:49;10.00;53.30
20483;DHT22;10400;53.198;6.592;2023-04-15T12:36:15;10.00;78.80
20483;DHT22;10400;53.198;6.592;2023-04-15T12:38:41;10.10;70.70
20483;DHT22;10400;53.198;6.592;2023-04-15T12:41:07;10.20;69.90
20483;DHT22;10400;53.198;6.592;2023-04-15T12:43:32;10.20;55.60
20483;DHT22;10400;53.198;6.592;2023-04-15T12:45:58;10.20;85.70
20483;DHT22;10400;53.198;6.592;2023-04-15T12:48:23;10.30;75.50
20483;DHT22;10400;53.198;6.592;2023-04-15T12:50:49;10.20;65.90
20483;DHT22;10400;53.198;6.592;2023-04-15T12:53:15;10.10;52.90
20483;DHT22;10400;53.198;6.592;2023-04-15T12:55:41;10.00;74.00
20483;DHT22;10400;53.198;6.592;2023-04-15T12:58:06;10.00;97.10
20483;DHT22;10400;53.198;6.592;2023-04-15T13:00:35;10.00;99.90
20483;DHT22;10400;53.198;6.592;2023-04-15T13:03:00;9.90;95.30
20483;DHT22;10400;53.198;6.592;2023-04-15T13:05:26;9.70;91.60
20483;DHT22;10400;53.198;6.592;2023-04-15T13:07:52;9.70;94.80
20483;DHT22;10400;53.198;6.592;2023-04-15T13:10:18;9.80;99.90
20483;DHT22;10400;53.198;6.592;2023-04-15T13:12:43;9.80;99.90
20483;DHT22;10400;53.198;6.592;2023-04-15T13:15:11;9.70;99.90
20483;DHT22;10400;53.198;6.592;2023-04-15T13:17:37;9.60;99.90
20483;DHT22;10400;53.198;6.592;2023-04-15T13:20:03;9.50;99.90
20483;DHT22;10400;53.198;6.592;2023-04-15T13:22:29;9.50;99.90
20483;DHT22;10400;53.198;6.592;2023-04-15T13:24:55;9.50;99.90
20483;DHT22;10400;53.198;6.592;2023-04-15T13:27:20;9.60;99.90
20483;DHT22;10400;53.198;6.592;2023-04-15T13:29:46;9.60;99.90
20483;DHT22;10400;53.198;6.592;2023-04-15T13:32:12;9.50;99.90
20483;DHT22;10400;53.198;6.592;2023-04-15T13:34:37;9.50;99.90
20483;DHT22;10400;53.198;6.592;2023-04-15T13:37:07;9.50;99.90
20483;DHT22;10400;53.198;6.592;2023-04-15T13:39:33;9.30;99.90
20483;DHT22;10400;53.198;6.592;2023-04-15T13:41:58;9.30;99.90
20483;DHT22;10400;53.198;6.592;2023-04-15T13:44:24;9.40;99.90
20483;DHT22;10400;53.198;6.592;2023-04-15T13:46:50;9.40;99.90
20483;DHT22;10400;53.198;6.592;2023-04-15T13:49:16;9.30;99.90
20483;DHT22;10400;53.198;6.592;2023-04-15T13:51:41;9.40;99.90
20483;DHT22;10400;53.198;6.592;2023-04-15T13:54:07;9.50;99.90
20483;DHT22;10400;53.198;6.592;2023-04-15T13:56:32;9.40;99.90
20483;DHT22;10400;53.198;6.592;2023-04-15T13:58:58;9.50;99.90
20483;DHT22;10400;53.198;6.592;2023-04-15T14:01:26;9.40;99.90
20483;DHT22;10400;53.198;6.592;2023-04-15T14:03:52;9.40;99.90
20483;DHT22;10400;53.198;6.592;2023-04-15T14:06:18;9.50;99.90
20483;DHT22;10400;53.198;6.592;2023-04-15T14:08:43;9.50;99.90
20483;DHT22;10400;53.198;6.592;2023-04-15T14:11:09;9.50;99.90
20483;DHT22;10400;53.198;6.592;2023-04-15T14:13:35;9.50;99.90
20483;DHT22;10400;53.198;6.592;2023-04-15T14:16:01;9.50;99.90
20483;DHT22;10400;53.198;6.592;2023-04-15T14:18:26;9.30;99.90
20483;DHT22;10400;53.198;6.592;2023-04-15T14:20:52;9.40;99.90
20483;DHT22;10400;53.198;6.592;2023-04-15T14:23:18;9.50;99.90
20483;DHT22;10400;53.198;6.592;2023-04-15T14:25:44;9.50;99.90
20483;DHT22;10400;53.198;6.592;2023-04-15T14:28:09;9.50;99.90
20483;DHT22;10400;53.198;6.592;2023-04-15T14:30:35;9.50;99.90
20483;DHT22;10400;53.198;6.592;2023-04-15T14:33:01;9.40;99.90
20483;DHT22;10400;53.198;6.592;2023-04-15T14:35:27;9.40;99.90
20483;DHT22;10400;53.198;6.592;2023-04-15T14:37:53;9.40;99.90
20483;DHT22;10400;53.198;6.592;2023-04-15T14:40:19;9.40;99.90
20483;DHT22;10400;53.198;6.592;2023-04-15T14:42:45;9.40;99.90
20483;DHT22;10400;53.198;6.592;2023-04-15T14:45:11;9.40;99.90
20483;DHT22;10400;53.198;6.592;2023-04-15T14:47:36;9.40;99.90
20483;DHT22;10400;53.198;6.592;2023-04-15T14:50:02;9.40;99.90
20483;DHT22;10400;53.198;6.592;2023-04-15T14:52:30;9.40;99.90
20483;DHT22;10400;53.198;6.592;2023-04-15T14:54:57;9.30;99.90
20483;DHT22;10400;53.198;6.592;2023-04-15T14:57:23;9.30;99.90
20483;DHT22;10400;53.198;6.592;2023-04-15T14:59:48;9.30;99.90
20483;DHT22;10400;53.198;6.592;2023-04-15T15:02:14;9.30;99.90
20483;DHT22;10400;53.198;6.592;2023-04-15T15:04:40;9.30;99.90
20483;DHT22;10400;53.198;6.592;2023-04-15T15:07:06;9.30;99.90
20483;DHT22;10400;53.198;6.592;2023-04-15T15:09:31;9.20;99.90
20483;DHT22;10400;53.198;6.592;2023-04-15T15:11:57;9.20;99.90
20483;DHT22;10400;53.198;6.592;2023-04-15T15:14:23;9.20;99.90
20483;DHT22;10400;53.198;6.592;2023-04-15T15:16:48;9.20;99.90
20483;DHT22;10400;53.198;6.592;2023-04-15T15:19:14;9.10;99.90
20483;DHT22;10400;53.198;6.592;2023-04-15T15:21:40;9.10;99.90
20483;DHT22;10400;53.198;6.592;2023-04-15T15:24:05;9.10;99.90
20483;DHT22;10400;53.198;6.592;2023-04-15T15:26:31;9.10;99.90
20483;DHT22;10400;53.198;6.592;2023-04-15T15:28:57;9.10;99.90
20483;DHT22;10400;53.198;6.592;2023-04-15T15:31:23;9.10;99.90
20483;DHT22;10400;53.198;6.592;2023-04-15T15:33:49;9.10;99.90
20483;DHT22;10400;53.198;6.592;2023-04-15T15:36:15;9.00;99.90
20483;DHT22;10400;53.198;6.592;2023-04-15T15:38:41;9.00;99.90
20483;DHT22;10400;53.198;6.592;2023-04-15T15:41:07;9.00;99.90
20483;DHT22;10400;53.198;6.592;2023-04-15T15:43:32;9.00;99.90
20483;DHT22;10400;53.198;6.592;2023-04-15T15:45:58;9.00;99.90
20483;DHT22;10400;53.198;6.592;2023-04-15T15:48:24;8.90;99.90
20483;DHT22;10400;53.198;6.592;2023-04-15T15:50:51;8.90;99.90
20483;DHT22;10400;53.198;6.592;2023-04-15T15:53:16;8.90;99.90
20483;DHT22;10400;53.198;6.592;2023-04-15T15:55:46;8.90;99.90
20483;DHT22;10400;53.198;6.592;2023-04-15T15:58:12;8.90;99.90
20483;DHT22;10400;53.198;6.592;2023-04-15T16:00:38;8.90;99.90
20483;DHT22;10400;53.198;6.592;2023-04-15T16:03:04;8.90;99.90
20483;DHT22;10400;53.198;6.592;2023-04-15T16:05:30;8.80;99.90